Millville Municipal Airport
KMIV : now visible

Airfield :











YOU CAN JOIN US ON...

 
LOGIN :

Register | Disclaimer

   EN    FR    IT 

 









Legend :    VFR   Marginal VFR   IFR   Intensive IFR   Very Intensive IFR
Visi :
Ceiling :
>= 8 km
>= 3000ft
5 to 8 km
1000 to 3000 ft
1500m to 5 km
500 to 1000 ft
800 to 1500m
200 to 500 ft
< 800m
< 200 ft
Symbols :   Thunderstorms  Fog  Heavy snow  Heavy precipitations  Wind > 20 kt






- Airport Elevation : 85 ft


KMIV - Millville Municipal

CURRENT METAR :
  • 262005Z AUTO 09008KT 2SM BR OVC006 05/04 A2981 RMK AO2 T00500044

EXPIRED METARs :
  • 261954Z AUTO 08007KT 1 3/4SM BR OVC006 05/04 A2982 RMK AO2 SLP099 T00500044
  • 261950Z AUTO 09008KT 1 3/4SM BR OVC006 05/04 A2982 RMK AO2
  • 261940Z AUTO 08009KT 2SM BR OVC006 05/04 A2982 RMK AO2 T00500044
  • 261931Z AUTO 08008KT 1 3/4SM BR OVC007 05/04 A2983 RMK AO2 T00500044
  • 261854Z AUTO 08008KT 2SM BR OVC006 05/04 A2983 RMK AO2 CIG 004V010 SLP102 T00500039
  • 261843Z AUTO 08007KT 2 1/2SM BR OVC006 05/04 A2983 RMK AO2 CIG 005V010 T00500039
  • 261828Z AUTO 07007KT 1 3/4SM BR OVC007 05/04 A2984 RMK AO2 CIG 005V010 T00500039
  • 261821Z AUTO 08007KT 2SM BR OVC007 04/04 A2984 RMK AO2 CIG 005V010 T00440039
  • 261754Z AUTO 08009KT 4SM BR BKN007 OVC011 04/04 A2985 RMK AO2 RAE17 CIG 005V010 SLP108 P0001 60005 T00440039 10044 20011 58030
  • 261735Z AUTO 08009KT 3SM BR OVC007 04/04 A2987 RMK AO2 RAE17 CIG 003V009 P0001 T00440039
  • 261721Z AUTO 07008KT 2SM BR BKN005 OVC009 04/04 A2988 RMK AO2 RAE17 CIG 003V007 P0001 T00440039

TAF KMIV
Valid from the 26 at 18:00 until the 27 at 18:00 UTC


261741Z 2618/2718 08008KT 2SM -DZ BR OVC005
FM262100 07006KT 3SM BR VCSH OVC005
FM270400 VRB02KT 4SM BR OVC005
FM270800 VRB04KT 3SM BR BKN010
FM271300 30007KT P6SM BKN025
KZDC FIR / North America



MET'MAP, your aeronautical weather chart ! - Copyright ORBIFLY December 2007 - Disclaimer

ORBIFLY MET'MAP TEAM :

Programming & Development : Alexandra Zaïnal
Concept & original design : Baudouin d'Aumeries
Assistance for programming : Marc-Olivier Méhu
Technical & hardware support : Manuel Goepfert

Contact : metmap@orbifly.com




SOURCES & CREDITS :

   NOAA       Earth
Advisory